Airfield :
LOGIN :

Register | Disclaimer

   EN    FR    IT 

 










Legend :    VFR   Marginal VFR   IFR   Intensive IFR   Very Intensive IFR
Visi :
Ceiling :
>= 8 km
>= 3000ft
5 to 8 km
1000 to 3000 ft
1500m to 5 km
500 to 1000 ft
800 to 1500m
200 to 500 ft
< 800m
< 200 ft
Symbols :   Thunderstorms  Fog  Heavy snow  Heavy precipitations  Wind > 20 kt
SIGMETs :     Misc.  Thunderstorms  Icing  Turbulence  Mountain Waves  Volcanic Ashes






- Airport Elevation : 427 ft
- IATA code : CIA


LIRA - Roma Ciampino

CURRENT METAR :
  • 172220Z 10005KT CAVOK 14/11 Q1020

EXPIRED METARs :
  • 172150Z 10006KT CAVOK 14/11 Q1020
  • 172120Z 10005KT CAVOK 14/11 Q1020
  • 172050Z 10004KT CAVOK 14/11 Q1020
  • 172020Z 10004KT CAVOK 14/11 Q1020
  • 171950Z 10004KT CAVOK 14/11 Q1020

TAF TAF LIRA
Valid from the 17 at 18:00 until the 18 at 18:00 UTC


171700Z 1718/1818 VRB05KT CAVOK
TEMPO 1802/1806 4000 BR
BECMG 1810/1812 24010KT



MET'MAP, your aeronautical weather chart ! - Copyright ORBIFLY December 2007 - Disclaimer

ORBIFLY MET'MAP TEAM :

Programming & Development : Alexandra Zaïnal
Concept & Development : Baudouin d'Aumeries
Co-Development & Prog : Marc-Olivier Méhu
Technical & hardware support : Manuel Goepfert

Contact : metmap@orbifly.com




SOURCES & CREDITS :

   NOAA